Patrice — VKN6053 — position and weather

sailwx.info

Track history (hours):
 
Tides and Currents Weather Stations Pressure Air Temp Water Temp Dewpoint Dewpoint Depression Visibility Wind Speed Wind Dir Waves Ship Positions

Patrice

Last reported at 2014-Jul-31 07:19 UTC. Time now 2014-Aug-02 06:38 UTC.
Position S 26°51' E 153°09'.

Length 14 m.

Type: Sailing vessel. MMSI: 503659300.

Date/timePositionNaut miles runAvg speedWind from/ knotsBaromVisibWave heightAir tempDewpointWater temp
2014-Jul-31 07:19S 26°51' E 153°09'7 8.9
2014-Jul-31 06:31S 26°57' E 153°13'28 7.1
2014-Jul-31 02:33S 27°25' E 153°18'2 2.2
2014-Jul-31 01:33S 27°27' E 153°17'7 6.2
2014-Jul-31 00:24S 27°21' E 153°13'3 0.1
2014-Jul-29 22:07S 27°22' E 153°10'5 8.4
2014-Jul-29 21:30S 27°18' E 153°13'8 8.3
2014-Jul-29 20:33S 27°12' E 153°18'8 7.5
2014-Jul-29 19:33S 27°05' E 153°22'7 7.1
2014-Jul-29 18:33S 26°58' E 153°20'8 6.2
2014-Jul-29 17:15S 27°01' E 153°28'5 7.3
2014-Jul-29 16:33S 27°06' E 153°29'30 7.0
2014-Jul-29 12:15S 27°36' E 153°32'6 8.0
2014-Jul-29 11:27S 27°43' E 153°31'7 7.7
2014-Jul-29 10:33S 27°49' E 153°29'7 7.1
2014-Jul-29 09:33S 27°56' E 153°27'3 2.4
2014-Jul-29 08:31S 27°58' E 153°26'0 0.0
2014-Jul-29 07:31S 27°58' E 153°26'0 0.0
2014-Jul-29 06:33S 27°58' E 153°26'0 0.0
2014-Jul-28 05:33S 27°58' E 153°26'0 0.0
2014-Jul-27 23:32S 27°58' E 153°26'0 0.0
2014-Jul-27 22:32S 27°58' E 153°26'1 1.5
2014-Jul-27 21:31S 27°57' E 153°27'  
Track history (hours):
 
Tides and Currents Weather Stations Pressure Air Temp Water Temp Dewpoint Dewpoint Depression Visibility Wind Speed Wind Dir Waves Ship Positions

Patrice

Last reported at 2014-Jul-31 07:19 UTC. Time now 2014-Aug-02 06:38 UTC.
Position S 26°51' E 153°09'.

Length 14 m.

Type: Sailing vessel. MMSI: 503659300.

Date/timePositionNaut miles runAvg speedWind from/ knotsBaromVisibWave heightAir tempDewpointWater temp
2014-Jul-31 07:19S 26°51' E 153°09'7 8.9
2014-Jul-31 06:31S 26°57' E 153°13'28 7.1
2014-Jul-31 02:33S 27°25' E 153°18'2 2.2
2014-Jul-31 01:33S 27°27' E 153°17'7 6.2
2014-Jul-31 00:24S 27°21' E 153°13'3 0.1
2014-Jul-29 22:07S 27°22' E 153°10'5 8.4
2014-Jul-29 21:30S 27°18' E 153°13'8 8.3
2014-Jul-29 20:33S 27°12' E 153°18'8 7.5
2014-Jul-29 19:33S 27°05' E 153°22'7 7.1
2014-Jul-29 18:33S 26°58' E 153°20'8 6.2
2014-Jul-29 17:15S 27°01' E 153°28'5 7.3
2014-Jul-29 16:33S 27°06' E 153°29'30 7.0
2014-Jul-29 12:15S 27°36' E 153°32'6 8.0
2014-Jul-29 11:27S 27°43' E 153°31'7 7.7
2014-Jul-29 10:33S 27°49' E 153°29'7 7.1
2014-Jul-29 09:33S 27°56' E 153°27'3 2.4
2014-Jul-29 08:31S 27°58' E 153°26'0 0.0
2014-Jul-29 07:31S 27°58' E 153°26'0 0.0
2014-Jul-29 06:33S 27°58' E 153°26'0 0.0
2014-Jul-28 05:33S 27°58' E 153°26'0 0.0
2014-Jul-27 23:32S 27°58' E 153°26'0 0.0
2014-Jul-27 22:32S 27°58' E 153°26'1 1.5
2014-Jul-27 21:31S 27°57' E 153°27'  

Dump ship's entire track history